createdAt,value
2018-05-21T00:00:32.393Z,82.97
2018-05-21T00:01:33.380Z,82.30
2018-05-21T00:02:29.915Z,81.73
2018-05-21T00:03:28.728Z,81.25
2018-05-21T00:04:28.727Z,80.29
2018-05-21T00:05:28.587Z,80.87
2018-05-21T00:06:28.763Z,79.91
2018-05-21T00:07:28.927Z,79.33
2018-05-21T00:08:29.384Z,79.52
2018-05-21T00:09:28.679Z,79.47
2018-05-21T00:10:28.656Z,79.95
2018-05-21T00:11:29.037Z,80.77
2018-05-21T00:12:30.881Z,81.15
2018-05-21T00:13:28.840Z,81.63
2018-05-21T00:14:30.374Z,81.73
2018-05-21T00:15:28.776Z,81.82
2018-05-21T00:16:28.704Z,82.78
2018-05-21T00:17:28.523Z,82.68
2018-05-21T00:18:28.635Z,83.31
2018-05-21T00:19:28.530Z,83.06
2018-05-21T00:20:28.597Z,83.12
2018-05-21T00:21:28.487Z,83.12
2018-05-21T00:22:28.512Z,83.12
2018-05-21T00:23:28.747Z,83.79
2018-05-21T00:24:28.716Z,84.08
2018-05-21T00:25:28.594Z,83.69
2018-05-21T00:26:28.670Z,83.60
2018-05-21T00:27:29.131Z,84.08
2018-05-21T00:28:32.885Z,84.08
2018-05-21T00:29:30.933Z,84.08
2018-05-21T00:30:29.009Z,84.55
2018-05-21T00:31:28.639Z,84.46
2018-05-21T00:32:29.888Z,84.32
2018-05-21T00:38:39.521Z,86.23
2018-05-21T00:39:11.367Z,87.29
2018-05-21T00:40:11.382Z,87.19
2018-05-21T00:41:11.732Z,87.29
2018-05-21T00:42:11.945Z,87.48
2018-05-21T00:43:12.675Z,88.05
2018-05-21T00:44:11.333Z,87.86
2018-05-21T00:45:11.055Z,87.66
2018-05-21T00:46:11.647Z,87.95
2018-05-21T00:47:11.350Z,87.09
2018-05-21T00:48:11.401Z,87.19
2018-05-21T00:49:11.469Z,87.09
2018-05-21T00:50:12.566Z,87.09
2018-05-21T00:51:13.398Z,87.57
2018-05-21T00:52:11.067Z,87.34
2018-05-21T00:53:10.967Z,87.62
2018-05-21T00:54:10.929Z,87.19
2018-05-21T00:55:19.813Z,87.91
2018-05-21T00:56:25.584Z,87.91
2018-05-21T00:57:21.130Z,88.43
2018-05-21T00:58:20.663Z,87.53
2018-05-21T00:59:19.164Z,87.34
2018-05-21T01:00:21.190Z,88.29
2018-05-21T01:01:23.764Z,88.34
2018-05-21T01:02:25.810Z,88.39
2018-05-21T01:03:12.752Z,88.48
2018-05-21T01:04:13.374Z,88.39
2018-05-21T01:05:10.806Z,88.10
2018-05-21T01:06:10.874Z,88.58
2018-05-21T01:07:10.909Z,88.39
2018-05-21T01:08:10.863Z,88.29
2018-05-21T01:09:10.905Z,88.96
2018-05-21T01:10:10.846Z,89.34
2018-05-21T01:11:11.007Z,88.87
2018-05-21T01:12:10.845Z,88.39
2018-05-21T01:13:10.730Z,88.87
2018-05-21T01:14:10.759Z,88.29
2018-05-21T01:15:10.674Z,88.48
2018-05-21T01:16:10.794Z,89.15
2018-05-21T01:17:10.720Z,89.15
2018-05-21T01:18:10.930Z,88.68
2018-05-21T01:19:10.714Z,89.06
2018-05-21T01:20:10.662Z,88.58
2018-05-21T01:21:10.565Z,88.72
2018-05-21T01:22:10.600Z,88.91
2018-05-21T01:23:10.632Z,88.24
2018-05-21T01:24:10.676Z,87.57
2018-05-21T01:25:10.625Z,87.57
2018-05-21T01:26:10.510Z,87.48
2018-05-21T01:27:10.656Z,86.61
2018-05-21T01:28:10.551Z,86.61
2018-05-21T01:29:10.533Z,86.33
2018-05-21T01:30:10.465Z,86.43
2018-05-21T01:31:10.726Z,85.66
2018-05-21T01:32:10.516Z,84.52
2018-05-21T01:33:10.532Z,85.09
2018-05-21T01:34:10.630Z,84.23
2018-05-21T01:35:10.381Z,84.80
2018-05-21T01:36:10.421Z,84.70
2018-05-21T01:37:10.395Z,83.94
2018-05-21T01:38:10.424Z,84.52
2018-05-21T01:39:10.365Z,84.52
2018-05-21T01:40:10.407Z,84.32
2018-05-21T01:41:10.395Z,85.09
2018-05-21T01:42:10.282Z,84.80
2018-05-21T01:43:10.296Z,85.09
2018-05-21T01:44:10.254Z,85.28
2018-05-21T01:45:10.224Z,85.47
2018-05-21T01:46:12.315Z,85.66
2018-05-21T01:47:11.260Z,85.66
2018-05-21T01:48:10.301Z,85.47
2018-05-21T01:49:10.246Z,85.47
2018-05-21T01:50:10.301Z,84.89
2018-05-21T01:51:10.457Z,84.52
2018-05-21T01:52:10.246Z,84.89
2018-05-21T01:53:10.377Z,84.99
2018-05-21T01:54:10.600Z,85.47
2018-05-21T01:55:10.574Z,85.57
2018-05-21T01:56:10.132Z,86.19
2018-05-21T01:57:10.167Z,85.42
2018-05-21T01:58:10.137Z,85.33
2018-05-21T01:59:10.073Z,85.38
2018-05-21T02:00:10.094Z,85.71
2018-05-21T02:01:10.036Z,85.18
2018-05-21T02:02:10.065Z,85.14
2018-05-21T02:03:10.257Z,85.62
2018-05-21T02:04:10.038Z,85.71
2018-05-21T02:05:09.974Z,85.52
2018-05-21T02:06:09.972Z,85.57
2018-05-21T02:07:09.971Z,85.38
2018-05-21T02:08:09.952Z,85.33
2018-05-21T02:09:10.114Z,85.47
2018-05-21T02:10:10.047Z,85.47
2018-05-21T02:11:09.939Z,85.33
2018-05-21T02:12:10.399Z,85.09
2018-05-21T02:13:10.044Z,85.57
2018-05-21T02:14:10.173Z,85.05
2018-05-21T02:15:09.894Z,84.56
2018-05-21T02:16:10.578Z,85.62
2018-05-21T02:17:10.189Z,85.24
2018-05-21T02:18:09.895Z,85.05
2018-05-21T02:19:09.771Z,85.33
2018-05-21T02:20:09.804Z,85.24
2018-05-21T02:21:09.734Z,85.62
2018-05-21T02:22:09.710Z,84.85
2018-05-21T02:23:09.721Z,84.76
2018-05-21T02:24:10.239Z,84.85
2018-05-21T02:25:09.768Z,85.38
2018-05-21T02:26:09.663Z,85.62
2018-05-21T02:27:09.672Z,85.62
2018-05-21T02:48:06.338Z,86.38
2018-05-21T02:50:05.268Z,86.38
2018-05-21T02:51:05.502Z,86.57
2018-05-21T02:52:06.210Z,86.29
2018-05-21T02:53:04.766Z,86.57
2018-05-21T02:54:05.265Z,86.38
2018-05-21T02:55:10.267Z,86.29
2018-05-21T02:58:48.597Z,86.38
2018-05-21T02:59:46.853Z,86.19
2018-05-21T03:00:50.138Z,86.47
2018-05-21T03:01:38.876Z,86.57
2018-05-21T03:04:48.371Z,84.85
2018-05-21T03:05:41.024Z,84.85
2018-05-21T03:06:41.075Z,85.05
2018-05-21T03:07:42.161Z,85.24
2018-05-21T03:08:40.837Z,85.14
2018-05-21T03:09:40.891Z,84.56
2018-05-21T03:10:40.759Z,84.28
2018-05-21T03:11:40.798Z,84.56
2018-05-21T03:12:42.671Z,84.56
2018-05-21T03:13:40.942Z,84.47
2018-05-21T03:14:40.795Z,83.99
2018-05-21T03:15:41.673Z,84.28
2018-05-21T03:16:41.266Z,84.28
2018-05-21T03:17:40.671Z,84.47
2018-05-21T03:18:40.657Z,84.19
2018-05-21T03:19:40.658Z,84.47
2018-05-21T03:20:40.606Z,84.56
2018-05-21T03:21:40.606Z,84.76
2018-05-21T03:22:40.632Z,84.56
2018-05-21T03:23:41.168Z,84.19
2018-05-21T03:24:44.729Z,84.47
2018-05-21T03:25:42.235Z,84.38
2018-05-21T03:26:58.165Z,85.05
2018-05-21T03:27:42.680Z,84.85
2018-05-21T03:29:42.170Z,85.05
2018-05-21T03:30:40.770Z,84.66
2018-05-21T03:31:40.485Z,85.14
2018-05-21T03:33:49.167Z,85.33
2018-05-21T03:34:51.672Z,85.33
2018-05-21T03:48:17.748Z,85.19
2018-05-21T04:16:34.778Z,80.06
2018-05-21T04:19:01.957Z,79.29
2018-05-21T04:41:57.208Z,71.78
2018-05-21T04:52:01.404Z,75.07
2018-05-21T04:52:02.177Z,75.16
2018-05-21T04:53:02.259Z,75.26
2018-05-21T04:54:30.601Z,75.83
2018-05-21T04:55:02.008Z,75.83
2018-05-21T04:56:12.287Z,75.83
2018-05-21T04:57:03.765Z,75.93
2018-05-21T05:03:40.589Z,76.40
2018-05-21T05:07:58.489Z,75.73
2018-05-21T05:08:58.472Z,75.45
2018-05-21T05:09:58.425Z,76.60
2018-05-21T05:10:58.426Z,76.60
2018-05-21T05:11:58.840Z,75.93
2018-05-21T05:12:58.347Z,75.83
2018-05-21T05:13:58.352Z,76.50
2018-05-21T05:14:58.329Z,76.79
2018-05-21T05:15:58.303Z,76.50
2018-05-21T05:16:58.987Z,76.35
2018-05-21T05:18:11.372Z,75.87
2018-05-21T05:19:07.572Z,75.39
2018-05-21T05:19:58.317Z,75.87
2018-05-21T05:20:59.091Z,75.58
2018-05-21T05:21:58.324Z,75.48
2018-05-21T05:22:58.495Z,75.96
2018-05-21T05:23:58.285Z,75.39
2018-05-21T05:24:58.231Z,75.29
2018-05-21T05:26:01.872Z,75.39
2018-05-21T05:27:59.601Z,75.48
2018-05-21T05:28:58.639Z,75.48
2018-05-21T05:29:58.156Z,75.48
2018-05-21T05:31:14.845Z,75.68
2018-05-21T05:32:02.202Z,75.48
2018-05-21T05:33:02.123Z,75.48
2018-05-21T05:33:58.113Z,76.06
2018-05-21T05:34:58.075Z,75.87
2018-05-21T05:35:58.087Z,76.54
2018-05-21T05:36:58.153Z,75.87
2018-05-21T05:37:58.069Z,76.54
2018-05-21T05:38:58.029Z,76.64
2018-05-21T05:39:58.864Z,76.44
2018-05-21T05:40:58.004Z,76.73
2018-05-21T05:41:58.059Z,75.96
2018-05-21T05:42:57.955Z,76.54
2018-05-21T05:43:57.934Z,76.15
2018-05-21T05:44:57.929Z,75.10
2018-05-21T05:45:57.913Z,75.29
2018-05-21T05:46:57.970Z,75.87
2018-05-21T05:47:57.923Z,75.48
2018-05-21T05:48:57.882Z,75.77
2018-05-21T05:49:57.873Z,75.29
2018-05-21T05:50:58.395Z,75.20
2018-05-21T05:51:57.869Z,74.72
2018-05-21T05:52:57.825Z,74.76
2018-05-21T05:53:57.870Z,74.66
2018-05-21T05:54:57.804Z,75.33
2018-05-21T05:55:57.799Z,75.43
2018-05-21T05:56:57.810Z,75.23
2018-05-21T05:58:59.897Z,75.23
2018-05-21T05:59:58.880Z,75.14
2018-05-21T06:05:09.046Z,76.77
2018-05-21T06:06:04.891Z,75.23
2018-05-21T06:07:24.392Z,75.95
2018-05-21T06:09:00.632Z,74.60
2018-05-21T06:09:58.692Z,74.31
2018-05-21T06:10:58.551Z,73.93
2018-05-21T06:11:58.544Z,73.74
2018-05-21T06:12:58.521Z,73.74
2018-05-21T06:13:58.588Z,72.88
2018-05-21T06:14:58.483Z,71.66
2018-05-21T06:15:58.531Z,71.19
2018-05-21T06:16:58.475Z,71.86
2018-05-21T06:17:58.499Z,70.90
2018-05-21T06:18:58.470Z,70.90
2018-05-21T06:19:58.765Z,70.99
2018-05-21T06:20:58.422Z,70.99
2018-05-21T06:21:58.429Z,70.42
2018-05-21T06:22:58.438Z,70.61
2018-05-21T06:23:58.422Z,70.13
2018-05-21T06:24:58.374Z,70.07
2018-05-21T06:25:58.466Z,69.87
2018-05-21T06:26:58.334Z,70.17
2018-05-21T06:27:58.492Z,70.64
2018-05-21T06:28:58.311Z,69.87
2018-05-21T06:29:58.334Z,69.97
2018-05-21T06:30:58.313Z,69.97
2018-05-21T06:31:58.272Z,69.93
2018-05-21T06:32:58.277Z,70.99
2018-05-21T06:33:58.353Z,70.51
2018-05-21T06:34:58.233Z,71.86
2018-05-21T06:35:58.267Z,72.24
2018-05-21T06:36:58.232Z,72.43
2018-05-21T06:37:58.214Z,71.86
2018-05-21T06:38:58.192Z,72.14
2018-05-21T06:39:58.171Z,71.89
2018-05-21T06:41:19.190Z,70.84
2018-05-21T06:41:58.187Z,71.61
2018-05-21T06:42:58.164Z,70.55
2018-05-21T06:43:58.131Z,69.87
2018-05-21T06:44:58.150Z,69.40
2018-05-21T06:45:58.135Z,69.72
2018-05-21T06:46:58.139Z,68.57
2018-05-21T06:47:58.105Z,69.05
2018-05-21T06:48:58.115Z,70.10
2018-05-21T06:49:58.099Z,68.95
2018-05-21T06:50:58.052Z,68.85
2018-05-21T06:51:58.088Z,68.18
2018-05-21T06:52:58.035Z,68.85
2018-05-21T06:53:58.028Z,69.62
2018-05-21T06:54:58.010Z,69.81
2018-05-21T06:55:58.018Z,69.34
2018-05-21T06:56:57.982Z,70.01
2018-05-21T06:57:57.992Z,69.91
2018-05-21T06:58:57.958Z,69.91
2018-05-21T06:59:57.940Z,69.05
2018-05-21T07:00:57.929Z,69.14
2018-05-21T07:01:57.934Z,69.24
2018-05-21T07:02:57.930Z,69.62
2018-05-21T07:03:57.898Z,69.14
2018-05-21T07:04:57.880Z,69.24
2018-05-21T07:05:57.871Z,68.76
2018-05-21T07:06:57.862Z,69.18
2018-05-21T07:08:06.040Z,69.37
2018-05-21T07:08:57.836Z,69.75
2018-05-21T07:09:57.818Z,69.18
2018-05-21T07:10:57.811Z,69.56
2018-05-21T07:11:57.799Z,69.46
2018-05-21T07:12:57.798Z,69.02
2018-05-21T07:13:57.809Z,70.46
2018-05-21T07:14:57.767Z,69.31
2018-05-21T07:15:57.761Z,68.15
2018-05-21T07:16:57.744Z,68.44
2018-05-21T07:17:57.737Z,69.40
2018-05-21T07:18:57.726Z,68.25
2018-05-21T07:19:57.725Z,67.48
2018-05-21T07:20:57.720Z,68.73
2018-05-21T07:21:57.683Z,68.06
2018-05-21T07:22:57.681Z,67.29
2018-05-21T07:23:57.667Z,67.10
2018-05-21T07:24:57.668Z,67.22
2018-05-21T07:25:57.659Z,67.32
2018-05-21T07:26:57.639Z,67.22
2018-05-21T07:27:57.625Z,67.80
2018-05-21T07:28:57.620Z,65.30
2018-05-21T07:29:57.634Z,68.03
2018-05-21T07:30:57.635Z,67.93
2018-05-21T07:31:59.433Z,65.81
2018-05-21T07:32:58.607Z,66.97
2018-05-21T07:33:57.849Z,67.16
2018-05-21T07:35:01.942Z,66.39
2018-05-21T07:35:57.554Z,67.39
2018-05-21T07:36:57.535Z,66.24
2018-05-21T07:37:57.556Z,64.79
2018-05-21T07:38:57.535Z,63.82
2018-05-21T07:39:57.501Z,63.76
2018-05-21T07:40:57.500Z,64.53
2018-05-21T07:41:57.475Z,64.15
2018-05-21T07:42:57.479Z,63.38
2018-05-21T07:43:57.476Z,63.70
2018-05-21T07:44:57.506Z,64.47
2018-05-21T07:45:57.442Z,63.70
2018-05-21T07:46:57.445Z,62.63
2018-05-21T07:47:57.417Z,62.93
2018-05-21T07:48:57.413Z,62.63
2018-05-21T07:49:57.414Z,62.54
2018-05-21T07:50:57.410Z,62.15
2018-05-21T07:51:57.370Z,62.45
2018-05-21T07:52:57.373Z,63.31
2018-05-21T07:53:57.357Z,60.90
2018-05-21T07:54:57.354Z,61.29
2018-05-21T07:55:57.363Z,61.32
2018-05-21T07:56:57.332Z,62.35
2018-05-21T07:57:57.326Z,62.09
2018-05-21T07:58:57.318Z,61.22
2018-05-21T07:59:57.316Z,61.32
2018-05-21T08:00:57.283Z,61.51
2018-05-21T08:01:57.273Z,60.35
2018-05-21T08:02:57.272Z,61.51
2018-05-21T08:03:57.254Z,61.22
2018-05-21T08:04:57.241Z,62.28
2018-05-21T08:05:57.244Z,61.61
2018-05-21T08:06:57.241Z,61.51
2018-05-21T08:07:57.489Z,59.90
2018-05-21T08:08:57.207Z,60.58
2018-05-21T08:09:57.216Z,60.28
2018-05-21T08:10:57.183Z,59.23
2018-05-21T08:11:57.188Z,59.23
2018-05-21T08:12:57.170Z,60.10
2018-05-21T08:13:57.154Z,60.86
2018-05-21T08:14:57.199Z,60.28
2018-05-21T08:15:57.149Z,59.32
2018-05-21T08:16:57.160Z,59.61
2018-05-21T08:17:57.114Z,60.10
2018-05-21T08:18:57.104Z,60.03
2018-05-21T08:19:57.093Z,59.93
2018-05-21T08:20:57.081Z,59.25
2018-05-21T08:21:57.078Z,58.97
2018-05-21T08:22:57.089Z,58.29
2018-05-21T08:23:57.059Z,57.71
2018-05-21T08:24:57.061Z,58.22
2018-05-21T08:25:57.032Z,58.77
2018-05-21T08:26:57.133Z,59.19
2018-05-21T08:27:57.036Z,59.28
2018-05-21T08:28:57.009Z,58.90
2018-05-21T08:29:57.006Z,57.84
2018-05-21T08:30:56.992Z,58.70
2018-05-21T08:31:57.049Z,58.70
2018-05-21T08:32:56.970Z,58.32
2018-05-21T08:33:56.986Z,57.87
2018-05-21T08:34:56.968Z,57.77
2018-05-21T08:35:56.939Z,57.77
2018-05-21T08:36:56.931Z,57.09
2018-05-21T08:37:56.945Z,57.29
2018-05-21T08:38:56.909Z,57.03
2018-05-21T08:39:56.915Z,56.22
2018-05-21T08:40:56.895Z,54.19
2018-05-21T08:41:56.883Z,54.77
2018-05-21T08:42:56.887Z,53.33
2018-05-21T08:43:56.883Z,53.11
2018-05-21T08:44:56.860Z,52.75
2018-05-21T08:45:56.882Z,52.04
2018-05-21T08:46:56.837Z,51.65
2018-05-21T08:47:56.826Z,53.23
2018-05-21T08:48:56.823Z,53.42
2018-05-21T08:49:56.827Z,51.97
2018-05-21T08:50:56.820Z,50.65
2018-05-21T08:51:56.812Z,51.03
2018-05-21T08:52:56.787Z,50.86
2018-05-21T08:53:56.804Z,49.41
2018-05-21T08:54:56.796Z,49.63
2018-05-21T08:55:56.763Z,48.95
2018-05-21T08:56:56.752Z,48.49
2018-05-21T08:57:56.756Z,48.49
2018-05-21T08:58:56.739Z,47.84
2018-05-21T08:59:56.732Z,45.59
2018-05-21T09:00:56.715Z,45.22
2018-05-21T09:01:56.710Z,45.32
2018-05-21T09:02:56.713Z,46.53
2018-05-21T09:03:56.698Z,45.41
2018-05-21T09:04:56.716Z,45.43
2018-05-21T09:05:56.672Z,42.95
2018-05-21T09:06:56.666Z,41.47
2018-05-21T09:07:56.672Z,41.30
2018-05-21T09:08:56.645Z,40.06
2018-05-21T09:09:56.684Z,39.76
2018-05-21T09:10:56.627Z,40.81
2018-05-21T09:11:56.633Z,40.91
2018-05-21T09:12:56.606Z,39.75
2018-05-21T09:13:56.622Z,40.13
2018-05-21T09:14:56.601Z,39.45
2018-05-21T09:15:56.605Z,39.62
2018-05-21T09:16:56.637Z,40.50
2018-05-21T09:17:56.614Z,40.60
2018-05-21T09:18:56.555Z,40.79
2018-05-21T09:19:56.555Z,40.99
2018-05-21T09:20:56.584Z,39.94
2018-05-21T09:21:56.536Z,38.50
2018-05-21T09:22:56.550Z,37.52
2018-05-21T09:23:56.524Z,37.56
2018-05-21T09:24:56.522Z,37.85
2018-05-21T09:25:56.516Z,37.93
2018-05-21T09:26:56.511Z,38.13
2018-05-21T09:27:56.492Z,38.23
2018-05-21T09:28:56.480Z,37.46
2018-05-21T09:29:56.472Z,37.84
2018-05-21T09:30:56.466Z,38.54
2018-05-21T09:31:56.498Z,37.58
2018-05-21T09:32:56.471Z,38.36
2018-05-21T09:33:56.454Z,36.43
2018-05-21T09:34:56.449Z,35.77
2018-05-21T09:35:56.451Z,34.88
2018-05-21T09:36:56.433Z,35.52
2018-05-21T09:37:56.460Z,36.00
2018-05-21T09:38:56.443Z,36.02
2018-05-21T09:39:56.428Z,36.02
2018-05-21T09:40:56.428Z,36.96
2018-05-21T09:41:56.441Z,36.67
2018-05-21T09:42:56.440Z,36.79
2018-05-21T09:43:56.410Z,36.71
2018-05-21T09:44:56.407Z,36.02
2018-05-21T09:45:56.407Z,36.22
2018-05-21T09:46:58.229Z,36.65
2018-05-21T09:47:56.425Z,35.59
2018-05-21T09:48:56.406Z,34.76
2018-05-21T09:49:56.402Z,35.52
2018-05-21T09:50:56.395Z,36.18
2018-05-21T09:51:56.398Z,37.70
2018-05-21T09:52:56.397Z,37.74
2018-05-21T09:53:56.404Z,37.64
2018-05-21T09:54:56.392Z,37.39
2018-05-21T09:55:56.386Z,35.80
2018-05-21T09:56:56.388Z,36.38
2018-05-21T09:57:56.384Z,37.80
2018-05-21T09:58:56.403Z,38.48
2018-05-21T09:59:56.404Z,40.01
2018-05-21T10:00:56.397Z,40.09
2018-05-21T10:01:56.384Z,40.36
2018-05-21T10:02:56.381Z,39.95
2018-05-21T10:03:56.414Z,40.44
2018-05-21T10:04:56.382Z,41.20
2018-05-21T10:05:56.380Z,41.27
2018-05-21T10:06:56.366Z,41.00
2018-05-21T10:07:56.372Z,40.92
2018-05-21T10:08:56.374Z,40.77
2018-05-21T10:09:56.379Z,40.50
2018-05-21T10:10:56.373Z,39.43
2018-05-21T10:11:56.358Z,39.61
2018-05-21T10:12:56.357Z,39.80
2018-05-21T10:13:56.351Z,40.69
2018-05-21T10:14:56.369Z,40.72
2018-05-21T10:15:56.362Z,39.26
2018-05-21T10:16:56.346Z,37.92
2018-05-21T10:17:56.338Z,36.85
2018-05-21T10:18:56.337Z,36.65
2018-05-21T10:19:56.350Z,37.62
2018-05-21T10:20:56.341Z,38.21
2018-05-21T10:21:56.333Z,37.93
2018-05-21T10:22:56.343Z,36.96
2018-05-21T10:23:56.354Z,37.06
2018-05-21T10:24:56.328Z,37.35
2018-05-21T10:25:56.332Z,37.26
2018-05-21T10:26:56.314Z,36.87
2018-05-21T10:27:56.309Z,36.69
2018-05-21T10:28:56.331Z,36.00
2018-05-21T10:29:56.307Z,36.18
2018-05-21T10:30:56.375Z,36.00
2018-05-21T10:31:56.296Z,36.57
2018-05-21T10:32:56.377Z,35.88
2018-05-21T10:33:56.291Z,36.63
2018-05-21T10:34:56.293Z,36.81
2018-05-21T10:35:56.289Z,37.30
2018-05-21T10:36:56.292Z,39.16
2018-05-21T10:37:56.307Z,37.92
2018-05-21T10:38:56.315Z,36.87
2018-05-21T10:39:56.296Z,36.90
2018-05-21T10:40:56.277Z,35.08
2018-05-21T10:41:56.275Z,34.71
2018-05-21T10:42:56.271Z,34.16
2018-05-21T10:43:56.345Z,33.79
2018-05-21T10:44:56.270Z,32.60
2018-05-21T10:45:56.283Z,31.62
2018-05-21T10:46:56.306Z,31.85
2018-05-21T10:47:56.281Z,33.46
2018-05-21T10:48:56.293Z,34.80
2018-05-21T10:49:56.268Z,35.08
2018-05-21T10:50:56.262Z,35.96
2018-05-21T10:51:56.260Z,35.58
2018-05-21T10:52:56.256Z,34.43
2018-05-21T10:53:56.283Z,34.55
2018-05-21T10:54:56.258Z,33.98
2018-05-21T10:55:56.258Z,34.11
2018-05-21T10:56:56.249Z,32.96
2018-05-21T10:57:56.245Z,31.80
2018-05-21T10:58:56.248Z,31.62
2018-05-21T10:59:56.272Z,31.04
2018-05-21T11:00:56.248Z,31.60
2018-05-21T11:01:56.249Z,31.48
2018-05-21T11:02:56.271Z,32.84
2018-05-21T11:03:56.307Z,31.59
2018-05-21T11:04:56.250Z,32.78
2018-05-21T11:05:56.245Z,32.39
2018-05-21T11:06:56.252Z,31.45
2018-05-21T11:07:56.245Z,32.13
2018-05-21T11:08:56.243Z,31.93
2018-05-21T11:09:56.267Z,30.26
2018-05-21T11:10:56.245Z,30.03
2018-05-21T11:11:56.243Z,30.54
2018-05-21T11:12:56.258Z,31.04
2018-05-21T11:13:56.242Z,30.54
2018-05-21T11:14:56.262Z,30.90
2018-05-21T11:15:56.262Z,31.48
2018-05-21T11:16:56.260Z,31.87
2018-05-21T11:17:56.256Z,30.93
2018-05-21T11:18:56.250Z,31.60
2018-05-21T11:19:56.280Z,31.12
2018-05-21T11:20:56.284Z,30.96
2018-05-21T11:21:56.282Z,30.09
2018-05-21T11:22:56.251Z,30.87
2018-05-21T11:23:58.016Z,29.81
2018-05-21T11:24:56.256Z,29.74
2018-05-21T11:25:56.263Z,28.55
2018-05-21T11:26:56.277Z,28.09
2018-05-21T11:27:56.259Z,29.33
2018-05-21T11:28:56.257Z,29.93
2018-05-21T11:29:56.275Z,29.64
2018-05-21T11:30:56.261Z,29.85
2018-05-21T11:31:56.299Z,30.26
2018-05-21T11:32:56.262Z,29.57
2018-05-21T11:33:56.271Z,30.93
2018-05-21T11:34:56.280Z,30.21
2018-05-21T11:35:56.266Z,30.38
2018-05-21T11:36:56.273Z,30.87
2018-05-21T11:37:56.277Z,30.94
2018-05-21T11:38:56.268Z,31.06
2018-05-21T11:39:56.288Z,31.53
2018-05-21T11:40:56.315Z,31.61
2018-05-21T11:41:56.272Z,32.20
2018-05-21T11:42:56.281Z,32.18
2018-05-21T11:43:56.273Z,31.81
2018-05-21T11:44:56.281Z,31.84
2018-05-21T11:45:56.272Z,30.78
2018-05-21T11:46:56.288Z,30.52
2018-05-21T11:47:56.275Z,29.36
2018-05-21T11:48:56.293Z,29.96
2018-05-21T11:49:56.266Z,29.69
2018-05-21T11:50:56.288Z,28.72
2018-05-21T11:51:56.284Z,29.71
2018-05-21T11:52:56.276Z,29.13
2018-05-21T11:53:56.301Z,28.64
2018-05-21T11:54:56.288Z,28.25
2018-05-21T11:55:56.274Z,28.25
2018-05-21T11:56:56.270Z,27.27
2018-05-21T11:57:56.273Z,27.47
2018-05-21T11:58:56.267Z,26.98
2018-05-21T11:59:56.290Z,27.45
2018-05-21T12:00:56.294Z,26.28
2018-05-21T12:01:56.298Z,26.37
2018-05-21T12:02:56.276Z,26.25
2018-05-21T12:03:56.295Z,26.03
2018-05-21T12:04:56.279Z,27.39
2018-05-21T12:05:56.276Z,28.07
2018-05-21T12:06:56.306Z,28.26
2018-05-21T12:07:56.286Z,28.07
2018-05-21T12:08:56.292Z,27.97
2018-05-21T12:09:56.295Z,28.77
2018-05-21T12:10:56.284Z,28.16
2018-05-21T12:11:56.282Z,28.19
2018-05-21T12:12:56.310Z,28.16
2018-05-21T12:13:56.292Z,28.16
2018-05-21T12:14:56.294Z,28.26
2018-05-21T12:15:56.286Z,28.08
2018-05-21T12:16:56.292Z,27.61
2018-05-21T12:17:56.300Z,26.35
2018-05-21T12:18:56.307Z,25.78
2018-05-21T12:19:56.296Z,27.34
2018-05-21T12:20:56.298Z,27.26
2018-05-21T12:21:56.295Z,27.16
2018-05-21T12:22:56.301Z,26.18
2018-05-21T12:23:56.310Z,26.98
2018-05-21T12:24:56.294Z,24.25
2018-05-21T12:25:56.292Z,24.73
2018-05-21T12:26:56.298Z,23.94
2018-05-21T12:27:56.299Z,24.71
2018-05-21T12:28:56.358Z,24.71
2018-05-21T12:29:56.320Z,24.11
2018-05-21T12:30:56.325Z,25.26
2018-05-21T12:31:56.320Z,26.14
2018-05-21T12:32:56.309Z,25.25
2018-05-21T12:33:56.320Z,26.02
2018-05-21T12:34:56.311Z,26.02
2018-05-21T12:35:56.339Z,26.41
2018-05-21T12:36:56.315Z,26.43
2018-05-21T12:37:56.323Z,25.75
2018-05-21T12:38:56.334Z,25.18
2018-05-21T12:39:56.323Z,24.89
2018-05-21T12:40:56.317Z,24.78
2018-05-21T12:41:56.324Z,25.16
2018-05-21T12:42:56.331Z,25.04
2018-05-21T12:43:56.333Z,26.31
2018-05-21T12:44:56.319Z,26.51
2018-05-21T12:45:56.334Z,26.90
2018-05-21T12:46:56.337Z,27.00
2018-05-21T12:47:56.336Z,26.23
2018-05-21T12:48:56.317Z,26.02
2018-05-21T12:49:56.333Z,25.91
2018-05-21T12:50:56.320Z,25.92
2018-05-21T12:51:56.318Z,25.14
2018-05-21T12:52:56.321Z,25.43
2018-05-21T12:53:56.394Z,25.04
2018-05-21T12:54:56.379Z,24.94
2018-05-21T12:55:56.422Z,26.21
2018-05-21T12:56:56.314Z,26.02
2018-05-21T12:57:56.314Z,26.12
2018-05-21T12:58:56.316Z,25.45
2018-05-21T12:59:56.330Z,26.63
2018-05-21T13:00:56.321Z,26.06
2018-05-21T13:01:56.317Z,25.08
2018-05-21T13:02:56.309Z,24.99
2018-05-21T13:03:56.308Z,25.27
2018-05-21T13:04:56.331Z,25.20
2018-05-21T13:05:56.328Z,23.83
2018-05-21T13:06:56.324Z,24.51
2018-05-21T13:07:56.356Z,23.63
2018-05-21T13:08:56.307Z,23.73
2018-05-21T13:09:56.313Z,23.73
2018-05-21T13:10:56.304Z,24.22
2018-05-21T13:11:56.333Z,23.72
2018-05-21T13:12:56.308Z,23.82
2018-05-21T13:13:56.321Z,23.52
2018-05-21T13:14:56.303Z,23.41
2018-05-21T13:15:56.306Z,24.19
2018-05-21T13:16:56.323Z,23.79
2018-05-21T13:17:56.308Z,24.57
2018-05-21T13:18:56.308Z,24.66
2018-05-21T13:19:56.293Z,25.24
2018-05-21T13:20:56.301Z,25.35
2018-05-21T13:21:56.298Z,24.46
2018-05-21T13:22:56.318Z,24.85
2018-05-21T13:23:56.295Z,25.73
2018-05-21T13:24:56.290Z,25.34
2018-05-21T13:25:56.306Z,26.21
2018-05-21T13:26:56.302Z,26.12
2018-05-21T13:27:56.291Z,25.71
2018-05-21T13:28:56.305Z,25.80
2018-05-21T13:29:56.299Z,26.30
2018-05-21T13:30:56.299Z,26.21
2018-05-21T13:31:56.282Z,26.32
2018-05-21T13:32:56.280Z,27.22
2018-05-21T13:33:56.287Z,26.04
2018-05-21T13:34:56.275Z,25.27
2018-05-21T13:35:56.289Z,24.41
2018-05-21T13:36:56.268Z,24.51
2018-05-21T13:37:56.265Z,24.32
2018-05-21T13:38:56.264Z,24.80
2018-05-21T13:39:56.261Z,24.42
2018-05-21T13:40:56.320Z,24.61
2018-05-21T13:41:56.271Z,24.61
2018-05-21T13:42:56.265Z,24.61
2018-05-21T13:43:56.248Z,24.79
2018-05-21T13:44:56.249Z,26.04
2018-05-21T13:45:56.267Z,25.16
2018-05-21T13:46:56.267Z,25.74
2018-05-21T13:47:56.235Z,26.31
2018-05-21T13:48:56.238Z,27.18
2018-05-21T13:49:56.236Z,27.37
2018-05-21T13:50:56.323Z,26.97
2018-05-21T13:51:56.241Z,26.95
2018-05-21T13:52:56.241Z,27.23
2018-05-21T13:53:56.228Z,28.11
2018-05-21T13:54:56.227Z,28.03
2018-05-21T13:55:56.226Z,28.22
2018-05-21T13:56:56.223Z,28.61
2018-05-21T13:57:56.224Z,28.63
2018-05-21T13:58:56.298Z,28.23
2018-05-21T13:59:56.196Z,27.94
2018-05-21T14:00:56.207Z,28.34
2018-05-21T14:01:56.247Z,28.05
2018-05-21T14:02:56.182Z,27.66
2018-05-21T14:03:56.184Z,26.98
2018-05-21T14:04:56.179Z,27.56
2018-05-21T14:05:56.175Z,28.07
2018-05-21T14:06:56.172Z,26.13
2018-05-21T14:07:56.185Z,26.04
2018-05-21T14:08:56.186Z,25.54
2018-05-21T14:09:56.180Z,25.84
2018-05-21T14:10:56.159Z,25.15
2018-05-21T14:11:56.150Z,25.15
2018-05-21T14:12:56.148Z,25.15
2018-05-21T14:13:56.163Z,25.34
2018-05-21T14:14:56.153Z,26.30
2018-05-21T14:15:56.133Z,27.06
2018-05-21T14:16:56.127Z,27.75
2018-05-21T14:17:56.122Z,28.33
2018-05-21T14:18:56.143Z,28.72
2018-05-21T14:19:56.117Z,28.90
2018-05-21T14:20:56.113Z,29.57
2018-05-21T14:21:56.102Z,29.86
2018-05-21T14:22:56.105Z,30.35
2018-05-21T14:23:56.119Z,29.66
2018-05-21T14:24:56.092Z,30.35
2018-05-21T14:25:56.118Z,30.04
2018-05-21T14:26:56.108Z,30.04
2018-05-21T14:27:56.079Z,30.52
2018-05-21T14:28:56.090Z,30.91
2018-05-21T14:29:56.067Z,30.33
2018-05-21T14:30:56.065Z,30.43
2018-05-21T14:31:56.057Z,30.91
2018-05-21T14:32:56.054Z,30.93
2018-05-21T14:33:56.048Z,30.35
2018-05-21T14:34:56.066Z,29.10
2018-05-21T14:35:56.040Z,28.90
2018-05-21T14:36:56.048Z,28.72
2018-05-21T14:37:56.024Z,28.53
2018-05-21T14:38:56.025Z,28.92
2018-05-21T14:39:56.016Z,28.74
2018-05-21T14:40:56.011Z,28.36
2018-05-21T14:41:56.017Z,29.04
2018-05-21T14:42:56.010Z,29.04
2018-05-21T14:43:55.992Z,28.65
2018-05-21T14:44:55.992Z,28.65
2018-05-21T14:45:55.984Z,28.77
2018-05-21T14:46:56.003Z,27.90
2018-05-21T14:47:55.974Z,27.40
2018-05-21T14:48:55.970Z,28.26
2018-05-21T14:49:55.964Z,28.25
2018-05-21T14:50:55.975Z,28.74
2018-05-21T14:51:55.950Z,28.23